sensor_id;sensor_type;location;lat;lon;timestamp;pressure;altitude;pressure_sealevel;temperature;humidity
19789;BME280;10054;59.332;18.244;2022-12-20T00:01:34;100365.00;;;1.85;100.00
19789;BME280;10054;59.332;18.244;2022-12-20T00:04:04;100351.09;;;1.86;100.00
19789;BME280;10054;59.332;18.244;2022-12-20T00:06:33;100353.70;;;1.86;100.00
19789;BME280;10054;59.332;18.244;2022-12-20T00:09:04;100342.80;;;1.88;100.00
19789;BME280;10054;59.332;18.244;2022-12-20T00:11:34;100347.59;;;1.87;100.00
19789;BME280;10054;59.332;18.244;2022-12-20T00:14:04;100341.59;;;1.85;100.00
19789;BME280;10054;59.332;18.244;2022-12-20T00:16:34;100337.23;;;1.86;100.00
19789;BME280;10054;59.332;18.244;2022-12-20T00:19:04;100332.53;;;1.84;100.00
19789;BME280;10054;59.332;18.244;2022-12-20T00:21:34;100335.13;;;1.84;100.00
19789;BME280;10054;59.332;18.244;2022-12-20T00:24:04;100335.98;;;1.84;100.00
19789;BME280;10054;59.332;18.244;2022-12-20T00:26:34;100329.88;;;1.85;100.00
19789;BME280;10054;59.332;18.244;2022-12-20T00:29:05;100332.04;;;1.86;100.00
19789;BME280;10054;59.332;18.244;2022-12-20T00:31:34;100321.14;;;1.88;100.00
19789;BME280;10054;59.332;18.244;2022-12-20T00:34:03;100315.08;;;1.87;100.00
19789;BME280;10054;59.332;18.244;2022-12-20T00:36:32;100317.23;;;1.88;100.00
19789;BME280;10054;59.332;18.244;2022-12-20T00:39:01;100308.58;;;1.87;100.00
19789;BME280;10054;59.332;18.244;2022-12-20T00:41:32;100300.78;;;1.87;100.00
19789;BME280;10054;59.332;18.244;2022-12-20T00:44:02;100300.83;;;1.86;100.00
19789;BME280;10054;59.332;18.244;2022-12-20T00:46:31;100300.83;;;1.86;100.00
19789;BME280;10054;59.332;18.244;2022-12-20T00:49:01;100305.13;;;1.87;100.00
19789;BME280;10054;59.332;18.244;2022-12-20T00:51:30;100305.17;;;1.85;100.00
19789;BME280;10054;59.332;18.244;2022-12-20T00:53:59;100298.23;;;1.86;100.00
19789;BME280;10054;59.332;18.244;2022-12-20T00:56:28;100292.58;;;1.86;100.00
19789;BME280;10054;59.332;18.244;2022-12-20T00:58:58;100295.22;;;1.85;100.00
19789;BME280;10054;59.332;18.244;2022-12-20T01:01:29;100290.47;;;1.84;100.00
19789;BME280;10054;59.332;18.244;2022-12-20T01:03:58;100285.72;;;1.84;100.00
19789;BME280;10054;59.332;18.244;2022-12-20T01:06:28;100292.67;;;1.83;100.00
19789;BME280;10054;59.332;18.244;2022-12-20T01:08:57;100288.77;;;1.83;100.00
19789;BME280;10054;59.332;18.244;2022-12-20T01:11:30;100296.17;;;1.82;100.00
19789;BME280;10054;59.332;18.244;2022-12-20T01:14:02;100289.72;;;1.81;100.00
19789;BME280;10054;59.332;18.244;2022-12-20T01:16:36;100285.42;;;1.80;100.00
19789;BME280;10054;59.332;18.244;2022-12-20T01:19:07;100283.72;;;1.79;100.00
19789;BME280;10054;59.332;18.244;2022-12-20T01:21:36;100291.11;;;1.78;100.00
19789;BME280;10054;59.332;18.244;2022-12-20T01:24:07;100286.81;;;1.77;100.00
19789;BME280;10054;59.332;18.244;2022-12-20T01:26:36;100279.02;;;1.77;100.00
19789;BME280;10054;59.332;18.244;2022-12-20T01:29:05;100272.96;;;1.76;100.00
19789;BME280;10054;59.332;18.244;2022-12-20T01:31:34;100272.96;;;1.76;100.00
19789;BME280;10054;59.332;18.244;2022-12-20T01:34:03;100266.46;;;1.76;100.00
19789;BME280;10054;59.332;18.244;2022-12-20T01:36:34;100261.31;;;1.75;100.00
19789;BME280;10054;59.332;18.244;2022-12-20T01:39:12;100256.11;;;1.75;100.00
19789;BME280;10054;59.332;18.244;2022-12-20T01:41:37;100256.95;;;1.75;100.00
19789;BME280;10054;59.332;18.244;2022-12-20T01:46:49;100250.95;;;1.73;100.00
19789;BME280;10054;59.332;18.244;2022-12-20T01:49:27;100241.85;;;1.73;100.00
19789;BME280;10054;59.332;18.244;2022-12-20T01:52:04;100247.91;;;1.74;100.00
19789;BME280;10054;59.332;18.244;2022-12-20T01:54:45;100243.95;;;1.75;100.00
19789;BME280;10054;59.332;18.244;2022-12-20T01:57:24;100238.80;;;1.74;100.00
19789;BME280;10054;59.332;18.244;2022-12-20T01:59:48;100243.66;;;1.71;100.00
19789;BME280;10054;59.332;18.244;2022-12-20T02:02:19;100242.05;;;1.67;100.00
19789;BME280;10054;59.332;18.244;2022-12-20T02:04:48;100237.40;;;1.63;100.00
19789;BME280;10054;59.332;18.244;2022-12-20T02:07:19;100231.84;;;1.61;100.00
19789;BME280;10054;59.332;18.244;2022-12-20T02:09:48;100233.64;;;1.59;100.00
19789;BME280;10054;59.332;18.244;2022-12-20T02:12:23;100228.94;;;1.57;100.00
19789;BME280;10054;59.332;18.244;2022-12-20T02:15:24;100225.14;;;1.54;100.00
19789;BME280;10054;59.332;18.244;2022-12-20T02:25:58;100208.39;;;1.49;100.00
19789;BME280;10054;59.332;18.244;2022-12-20T02:28:59;100204.49;;;1.49;100.00
19789;BME280;10054;59.332;18.244;2022-12-20T02:31:32;100201.58;;;1.47;100.00
19789;BME280;10054;59.332;18.244;2022-12-20T02:34:02;100205.97;;;1.45;100.00
19789;BME280;10054;59.332;18.244;2022-12-20T02:36:31;100203.82;;;1.44;100.00
19789;BME280;10054;59.332;18.244;2022-12-20T02:39:00;100196.47;;;1.44;100.00
19789;BME280;10054;59.332;18.244;2022-12-20T02:44:13;100187.42;;;1.42;100.00
19789;BME280;10054;59.332;18.244;2022-12-20T02:47:01;100184.88;;;1.41;100.00
19789;BME280;10054;59.332;18.244;2022-12-20T02:49:33;100190.47;;;1.42;100.00
19789;BME280;10054;59.332;18.244;2022-12-20T02:52:05;100186.63;;;1.40;100.00
19789;BME280;10054;59.332;18.244;2022-12-20T02:54:36;100191.47;;;1.38;100.00
19789;BME280;10054;59.332;18.244;2022-12-20T02:57:17;100187.13;;;1.38;100.00
19789;BME280;10054;59.332;18.244;2022-12-20T03:02:24;100178.88;;;1.39;100.00
19789;BME280;10054;59.332;18.244;2022-12-20T03:04:53;100170.58;;;1.41;100.00
19789;BME280;10054;59.332;18.244;2022-12-20T03:07:23;100165.85;;;1.52;100.00
19789;BME280;10054;59.332;18.244;2022-12-20T03:09:51;100165.75;;;1.55;100.00
19789;BME280;10054;59.332;18.244;2022-12-20T03:12:20;100160.66;;;1.52;100.00
19789;BME280;10054;59.332;18.244;2022-12-20T03:14:50;100157.48;;;1.44;100.00
19789;BME280;10054;59.332;18.244;2022-12-20T03:17:19;100152.94;;;1.37;100.00
19789;BME280;10054;59.332;18.244;2022-12-20T03:19:47;100147.48;;;1.31;100.00
19789;BME280;10054;59.332;18.244;2022-12-20T03:22:16;100154.03;;;1.30;100.00
19789;BME280;10054;59.332;18.244;2022-12-20T03:24:45;100148.03;;;1.28;100.00
19789;BME280;10054;59.332;18.244;2022-12-20T03:27:13;100139.84;;;1.27;100.00
19789;BME280;10054;59.332;18.244;2022-12-20T03:29:43;100139.89;;;1.25;100.00
19789;BME280;10054;59.332;18.244;2022-12-20T03:32:12;100142.04;;;1.26;100.00
19789;BME280;10054;59.332;18.244;2022-12-20T03:34:42;100134.74;;;1.24;100.00
19789;BME280;10054;59.332;18.244;2022-12-20T03:37:12;100135.19;;;1.23;100.00
19789;BME280;10054;59.332;18.244;2022-12-20T03:39:40;100135.19;;;1.23;100.00
19789;BME280;10054;59.332;18.244;2022-12-20T03:42:09;100133.89;;;1.23;100.00
19789;BME280;10054;59.332;18.244;2022-12-20T03:44:38;100134.79;;;1.22;100.00
19789;BME280;10054;59.332;18.244;2022-12-20T03:47:07;100134.34;;;1.23;100.00
19789;BME280;10054;59.332;18.244;2022-12-20T03:49:36;100133.89;;;1.23;100.00
19789;BME280;10054;59.332;18.244;2022-12-20T03:52:05;100131.70;;;1.24;100.00
19789;BME280;10054;59.332;18.244;2022-12-20T03:54:34;100129.95;;;1.25;100.00
19789;BME280;10054;59.332;18.244;2022-12-20T03:57:07;100130.80;;;1.25;100.00
19789;BME280;10054;59.332;18.244;2022-12-20T03:59:36;100126.05;;;1.25;100.00
19789;BME280;10054;59.332;18.244;2022-12-20T04:02:06;100119.60;;;1.23;100.00
19789;BME280;10054;59.332;18.244;2022-12-20T04:04:35;100120.00;;;1.24;100.00
19789;BME280;10054;59.332;18.244;2022-12-20T04:07:03;100118.70;;;1.24;100.00
19789;BME280;10054;59.332;18.244;2022-12-20T04:09:32;100120.41;;;1.25;100.00
19789;BME280;10054;59.332;18.244;2022-12-20T04:12:03;100118.50;;;1.30;100.00
19789;BME280;10054;59.332;18.244;2022-12-20T04:14:32;100114.30;;;1.40;100.00
19789;BME280;10054;59.332;18.244;2022-12-20T04:17:00;100110.30;;;1.43;100.00
19789;BME280;10054;59.332;18.244;2022-12-20T04:19:29;100112.16;;;1.39;100.00
19789;BME280;10054;59.332;18.244;2022-12-20T04:21:58;100111.06;;;1.33;100.00
19789;BME280;10054;59.332;18.244;2022-12-20T04:24:27;100101.31;;;1.26;100.00
19789;BME280;10054;59.332;18.244;2022-12-20T04:26:57;100098.42;;;1.22;100.00
19789;BME280;10054;59.332;18.244;2022-12-20T04:29:26;100094.97;;;1.22;100.00
19789;BME280;10054;59.332;18.244;2022-12-20T04:31:55;100095.42;;;1.21;100.00
19789;BME280;10054;59.332;18.244;2022-12-20T04:34:24;100088.52;;;1.20;100.00
19789;BME280;10054;59.332;18.244;2022-12-20T04:36:53;100088.52;;;1.20;100.00
19789;BME280;10054;59.332;18.244;2022-12-20T04:39:23;100083.33;;;1.20;100.00
19789;BME280;10054;59.332;18.244;2022-12-20T04:42:10;100078.58;;;1.20;100.00
19789;BME280;10054;59.332;18.244;2022-12-20T04:44:39;100072.09;;;1.20;100.00
19789;BME280;10054;59.332;18.244;2022-12-20T04:47:09;100068.64;;;1.19;100.00
19789;BME280;10054;59.332;18.244;2022-12-20T04:49:38;100068.24;;;1.18;100.00
19789;BME280;10054;59.332;18.244;2022-12-20T04:52:07;100063.95;;;1.17;100.00
19789;BME280;10054;59.332;18.244;2022-12-20T04:54:53;100057.84;;;1.18;100.00
19789;BME280;10054;59.332;18.244;2022-12-20T04:57:23;100059.15;;;1.18;100.00
19789;BME280;10054;59.332;18.244;2022-12-20T04:59:52;100053.95;;;1.18;100.00
19789;BME280;10054;59.332;18.244;2022-12-20T05:02:21;100056.50;;;1.20;100.00
19789;BME280;10054;59.332;18.244;2022-12-20T05:04:51;100052.16;;;1.20;100.00
19789;BME280;10054;59.332;18.244;2022-12-20T05:07:19;100047.36;;;1.21;100.00
19789;BME280;10054;59.332;18.244;2022-12-20T05:09:50;100048.20;;;1.22;100.00
19789;BME280;10054;59.332;18.244;2022-12-20T05:12:18;100045.26;;;1.19;100.00
19789;BME280;10054;59.332;18.244;2022-12-20T05:14:47;100053.05;;;1.19;100.00
19789;BME280;10054;59.332;18.244;2022-12-20T05:17:17;100052.16;;;1.20;100.00
19789;BME280;10054;59.332;18.244;2022-12-20T05:19:46;100047.36;;;1.21;100.00
19789;BME280;10054;59.332;18.244;2022-12-20T05:22:15;100052.55;;;1.21;100.00
19789;BME280;10054;59.332;18.244;2022-12-20T05:25:08;100053.34;;;1.23;100.00
19789;BME280;10054;59.332;18.244;2022-12-20T05:27:55;100054.95;;;1.27;100.00
19789;BME280;10054;59.332;18.244;2022-12-20T05:30:25;100056.28;;;1.39;100.00
19789;BME280;10054;59.332;18.244;2022-12-20T05:32:54;100057.03;;;1.43;100.00
19789;BME280;10054;59.332;18.244;2022-12-20T05:35:23;100052.89;;;1.37;100.00
19789;BME280;10054;59.332;18.244;2022-12-20T05:37:54;100052.19;;;1.32;100.00
19789;BME280;10054;59.332;18.244;2022-12-20T05:40:22;100059.19;;;1.30;100.00
19789;BME280;10054;59.332;18.244;2022-12-20T05:42:51;100055.45;;;1.25;100.00
19789;BME280;10054;59.332;18.244;2022-12-20T05:45:20;100060.24;;;1.24;100.00
19789;BME280;10054;59.332;18.244;2022-12-20T05:47:50;100063.29;;;1.24;100.00
19789;BME280;10054;59.332;18.244;2022-12-20T05:50:19;100066.34;;;1.23;100.00
19789;BME280;10054;59.332;18.244;2022-12-20T05:53:06;100068.48;;;1.24;100.00
19789;BME280;10054;59.332;18.244;2022-12-20T05:55:35;100058.55;;;1.23;100.00
19789;BME280;10054;59.332;18.244;2022-12-20T05:58:07;100058.09;;;1.24;100.00
19789;BME280;10054;59.332;18.244;2022-12-20T06:00:40;100062.45;;;1.23;100.00
19789;BME280;10054;59.332;18.244;2022-12-20T06:03:10;100060.24;;;1.24;100.00
19789;BME280;10054;59.332;18.244;2022-12-20T06:05:41;100056.75;;;1.25;100.00
19789;BME280;10054;59.332;18.244;2022-12-20T06:08:14;100056.75;;;1.25;100.00
19789;BME280;10054;59.332;18.244;2022-12-20T06:10:43;100055.84;;;1.26;100.00
19789;BME280;10054;59.332;18.244;2022-12-20T06:13:14;100053.25;;;1.26;100.00
19789;BME280;10054;59.332;18.244;2022-12-20T06:15:44;100054.95;;;1.27;100.00
19789;BME280;10054;59.332;18.244;2022-12-20T06:18:12;100049.34;;;1.26;100.00
19789;BME280;10054;59.332;18.244;2022-12-20T06:20:41;100052.34;;;1.27;100.00
19789;BME280;10054;59.332;18.244;2022-12-20T06:23:11;100048.45;;;1.27;100.00
19789;BME280;10054;59.332;18.244;2022-12-20T06:25:41;100050.59;;;1.28;100.00
19789;BME280;10054;59.332;18.244;2022-12-20T06:28:11;100048.40;;;1.29;100.00
19789;BME280;10054;59.332;18.244;2022-12-20T06:30:39;100044.05;;;1.29;100.00
19789;BME280;10054;59.332;18.244;2022-12-20T06:33:10;100040.61;;;1.29;100.00
19789;BME280;10054;59.332;18.244;2022-12-20T06:35:39;100041.45;;;1.29;100.00
19789;BME280;10054;59.332;18.244;2022-12-20T06:38:08;100044.45;;;1.30;100.00
19789;BME280;10054;59.332;18.244;2022-12-20T06:40:37;100037.91;;;1.32;100.00
19789;BME280;10054;59.332;18.244;2022-12-20T06:43:07;100041.25;;;1.36;100.00
19789;BME280;10054;59.332;18.244;2022-12-20T06:45:35;100038.84;;;1.43;100.00
19789;BME280;10054;59.332;18.244;2022-12-20T06:48:04;100044.14;;;1.51;100.00
19789;BME280;10054;59.332;18.244;2022-12-20T06:50:34;100039.08;;;1.48;100.00
19789;BME280;10054;59.332;18.244;2022-12-20T06:53:03;100033.98;;;1.45;100.00
19789;BME280;10054;59.332;18.244;2022-12-20T06:55:34;100032.50;;;1.38;100.00
19789;BME280;10054;59.332;18.244;2022-12-20T06:58:03;100027.91;;;1.33;100.00
19789;BME280;10054;59.332;18.244;2022-12-20T07:00:32;100027.11;;;1.31;100.00
19789;BME280;10054;59.332;18.244;2022-12-20T07:03:01;100022.36;;;1.30;100.00
19789;BME280;10054;59.332;18.244;2022-12-20T07:05:29;100023.21;;;1.31;100.00
19789;BME280;10054;59.332;18.244;2022-12-20T07:07:58;100021.02;;;1.32;100.00
19789;BME280;10054;59.332;18.244;2022-12-20T07:10:29;100025.36;;;1.31;100.00
19789;BME280;10054;59.332;18.244;2022-12-20T07:12:57;100024.52;;;1.31;100.00
19789;BME280;10054;59.332;18.244;2022-12-20T07:15:26;100027.56;;;1.30;100.00
19789;BME280;10054;59.332;18.244;2022-12-20T07:17:55;100020.56;;;1.33;100.00
19789;BME280;10054;59.332;18.244;2022-12-20T07:20:23;100019.72;;;1.32;100.00
19789;BME280;10054;59.332;18.244;2022-12-20T07:22:52;100021.02;;;1.32;100.00
19789;BME280;10054;59.332;18.244;2022-12-20T07:25:22;100014.12;;;1.31;100.00
19789;BME280;10054;59.332;18.244;2022-12-20T07:27:52;100008.47;;;1.31;100.00
19789;BME280;10054;59.332;18.244;2022-12-20T07:30:21;100016.32;;;1.30;100.00
19789;BME280;10054;59.332;18.244;2022-12-20T07:32:49;100014.57;;;1.30;100.00
19789;BME280;10054;59.332;18.244;2022-12-20T07:35:18;100013.72;;;1.30;100.00
19789;BME280;10054;59.332;18.244;2022-12-20T07:37:47;100016.27;;;1.31;100.00
19789;BME280;10054;59.332;18.244;2022-12-20T07:40:15;100021.47;;;1.31;100.00
19789;BME280;10054;59.332;18.244;2022-12-20T07:42:44;100017.11;;;1.32;100.00
19789;BME280;10054;59.332;18.244;2022-12-20T07:45:13;100019.27;;;1.33;100.00
19789;BME280;10054;59.332;18.244;2022-12-20T07:47:41;100031.35;;;1.34;100.00
19789;BME280;10054;59.332;18.244;2022-12-20T07:50:10;100016.61;;;1.34;100.00
19789;BME280;10054;59.332;18.244;2022-12-20T07:52:40;100020.45;;;1.36;100.00
19789;BME280;10054;59.332;18.244;2022-12-20T07:55:12;100023.05;;;1.36;100.00
19789;BME280;10054;59.332;18.244;2022-12-20T07:57:49;100010.52;;;1.35;100.00
19789;BME280;10054;59.332;18.244;2022-12-20T08:00:14;100009.16;;;1.37;100.00
19789;BME280;10054;59.332;18.244;2022-12-20T08:05:25;100006.85;;;1.41;100.00
19789;BME280;10054;59.332;18.244;2022-12-20T08:07:56;100013.19;;;1.45;100.00
19789;BME280;10054;59.332;18.244;2022-12-20T08:10:26;99999.69;;;1.47;100.00
19789;BME280;10054;59.332;18.244;2022-12-20T08:12:57;99999.69;;;1.47;100.00
19789;BME280;10054;59.332;18.244;2022-12-20T08:15:27;99994.89;;;1.48;100.00
19789;BME280;10054;59.332;18.244;2022-12-20T08:17:56;99998.70;;;1.50;100.00
19789;BME280;10054;59.332;18.244;2022-12-20T08:20:25;100005.94;;;1.53;100.00
19789;BME280;10054;59.332;18.244;2022-12-20T08:22:53;99988.99;;;1.55;100.00
19789;BME280;10054;59.332;18.244;2022-12-20T08:25:22;99979.73;;;1.59;100.00
19789;BME280;10054;59.332;18.244;2022-12-20T08:27:51;99990.75;;;1.66;100.00
19789;BME280;10054;59.332;18.244;2022-12-20T08:30:20;99984.83;;;1.74;100.00
19789;BME280;10054;59.332;18.244;2022-12-20T08:32:49;99982.11;;;1.77;100.00
19789;BME280;10054;59.332;18.244;2022-12-20T08:35:17;99995.23;;;1.74;100.00
19789;BME280;10054;59.332;18.244;2022-12-20T08:37:46;99998.34;;;1.72;100.00
19789;BME280;10054;59.332;18.244;2022-12-20T08:40:15;99991.16;;;1.67;100.00
19789;BME280;10054;59.332;18.244;2022-12-20T08:42:43;99987.76;;;1.65;100.00
19789;BME280;10054;59.332;18.244;2022-12-20T08:45:12;99989.51;;;1.64;100.00
19789;BME280;10054;59.332;18.244;2022-12-20T08:47:41;99989.96;;;1.64;100.00
19789;BME280;10054;59.332;18.244;2022-12-20T08:50:10;99990.02;;;1.62;100.00
19789;BME280;10054;59.332;18.244;2022-12-20T08:52:40;99993.41;;;1.64;100.00
19789;BME280;10054;59.332;18.244;2022-12-20T08:55:08;99986.46;;;1.65;100.00
19789;BME280;10054;59.332;18.244;2022-12-20T08:57:37;99984.26;;;1.66;100.00
19789;BME280;10054;59.332;18.244;2022-12-20T09:00:07;99985.95;;;1.67;100.00
19789;BME280;10054;59.332;18.244;2022-12-20T09:02:35;99993.30;;;1.68;100.00
19789;BME280;10054;59.332;18.244;2022-12-20T09:05:05;99989.85;;;1.67;100.00
19789;BME280;10054;59.332;18.244;2022-12-20T09:07:33;99991.55;;;1.68;100.00
19789;BME280;10054;59.332;18.244;2022-12-20T09:10:02;99989.34;;;1.69;100.00
19789;BME280;10054;59.332;18.244;2022-12-20T09:12:31;99982.39;;;1.70;100.00
19789;BME280;10054;59.332;18.244;2022-12-20T09:14:59;99986.23;;;1.71;100.00
19789;BME280;10054;59.332;18.244;2022-12-20T09:17:28;99981.44;;;1.72;100.00
19789;BME280;10054;59.332;18.244;2022-12-20T09:19:57;99973.13;;;1.74;100.00
19789;BME280;10054;59.332;18.244;2022-12-20T09:22:27;99962.72;;;1.74;100.00
19789;BME280;10054;59.332;18.244;2022-12-20T09:24:56;99971.77;;;1.76;100.00
19789;BME280;10054;59.332;18.244;2022-12-20T09:27:24;99969.96;;;1.78;100.00
19789;BME280;10054;59.332;18.244;2022-12-20T09:29:53;99960.41;;;1.78;100.00
19789;BME280;10054;59.332;18.244;2022-12-20T09:32:21;99958.20;;;1.79;100.00
19789;BME280;10054;59.332;18.244;2022-12-20T09:34:50;99945.14;;;1.81;100.00
19789;BME280;10054;59.332;18.244;2022-12-20T09:37:18;99945.09;;;1.82;100.00
19789;BME280;10054;59.332;18.244;2022-12-20T09:39:48;99943.33;;;1.83;100.00
19789;BME280;10054;59.332;18.244;2022-12-20T09:42:20;99939.83;;;1.84;100.00
19789;BME280;10054;59.332;18.244;2022-12-20T09:44:49;99948.93;;;1.84;100.00
19789;BME280;10054;59.332;18.244;2022-12-20T09:47:21;99944.97;;;1.85;100.00
19789;BME280;10054;59.332;18.244;2022-12-20T09:49:53;99945.77;;;1.87;100.00
19789;BME280;10054;59.332;18.244;2022-12-20T09:52:43;99947.91;;;1.88;100.00
19789;BME280;10054;59.332;18.244;2022-12-20T09:58:29;99953.51;;;1.89;100.00
19789;BME280;10054;59.332;18.244;2022-12-20T10:00:55;99953.45;;;1.90;100.00
19789;BME280;10054;59.332;18.244;2022-12-20T10:03:29;99956.90;;;1.91;100.00
19789;BME280;10054;59.332;18.244;2022-12-20T10:06:03;99962.89;;;1.93;100.00
19789;BME280;10054;59.332;18.244;2022-12-20T10:08:44;99968.03;;;1.94;100.00
19789;BME280;10054;59.332;18.244;2022-12-20T10:14:40;99954.91;;;1.97;100.00
19789;BME280;10054;59.332;18.244;2022-12-20T10:20:04;99954.41;;;2.00;100.00
19789;BME280;10054;59.332;18.244;2022-12-20T10:22:51;99954.34;;;2.01;100.00
19789;BME280;10054;59.332;18.244;2022-12-20T10:25:25;99950.38;;;2.03;100.00
19789;BME280;10054;59.332;18.244;2022-12-20T10:27:54;99935.23;;;2.02;100.00
19789;BME280;10054;59.332;18.244;2022-12-20T10:30:26;99929.52;;;2.04;100.00
19789;BME280;10054;59.332;18.244;2022-12-20T10:32:56;99933.42;;;2.04;100.00
19789;BME280;10054;59.332;18.244;2022-12-20T10:35:38;99929.45;;;2.06;100.00
19789;BME280;10054;59.332;18.244;2022-12-20T10:38:05;99924.64;;;2.07;100.00
19789;BME280;10054;59.332;18.244;2022-12-20T10:40:37;99925.04;;;2.08;100.00
19789;BME280;10054;59.332;18.244;2022-12-20T10:43:12;99930.58;;;2.10;100.00
19789;BME280;10054;59.332;18.244;2022-12-20T10:45:38;99929.22;;;2.12;100.00
19789;BME280;10054;59.332;18.244;2022-12-20T10:48:30;99924.29;;;2.16;100.00
19789;BME280;10054;59.332;18.244;2022-12-20T10:51:02;99917.84;;;2.24;100.00
19789;BME280;10054;59.332;18.244;2022-12-20T10:53:31;99920.38;;;2.26;100.00
19789;BME280;10054;59.332;18.244;2022-12-20T10:56:24;99920.84;;;2.25;100.00
19789;BME280;10054;59.332;18.244;2022-12-20T11:01:38;99894.58;;;2.21;100.00
19789;BME280;10054;59.332;18.244;2022-12-20T11:04:32;99911.34;;;2.24;100.00
19789;BME280;10054;59.332;18.244;2022-12-20T11:07:12;99916.94;;;2.25;100.00
19789;BME280;10054;59.332;18.244;2022-12-20T11:09:35;99916.48;;;2.26;100.00
19789;BME280;10054;59.332;18.244;2022-12-20T11:12:08;99914.33;;;2.25;100.00
19789;BME280;10054;59.332;18.244;2022-12-20T11:14:37;99915.18;;;2.26;100.00
19789;BME280;10054;59.332;18.244;2022-12-20T11:17:23;99917.78;;;2.26;100.00
19789;BME280;10054;59.332;18.244;2022-12-20T11:20:20;99917.33;;;2.26;100.00
19789;BME280;10054;59.332;18.244;2022-12-20T11:28:39;99909.86;;;2.29;100.00
19789;BME280;10054;59.332;18.244;2022-12-20T11:31:22;99901.98;;;2.30;100.00
19789;BME280;10054;59.332;18.244;2022-12-20T11:34:02;99907.98;;;2.33;100.00
19789;BME280;10054;59.332;18.244;2022-12-20T11:39:33;99892.69;;;2.35;100.00
19789;BME280;10054;59.332;18.244;2022-12-20T11:42:04;99898.29;;;2.36;100.00
19789;BME280;10054;59.332;18.244;2022-12-20T11:47:48;99907.34;;;2.38;100.00
19789;BME280;10054;59.332;18.244;2022-12-20T11:50:37;99908.58;;;2.39;100.00
19789;BME280;10054;59.332;18.244;2022-12-20T11:53:04;99904.73;;;2.38;100.00
19789;BME280;10054;59.332;18.244;2022-12-20T11:55:39;99913.14;;;2.44;100.00
19789;BME280;10054;59.332;18.244;2022-12-20T11:58:28;99904.11;;;2.53;100.00
19789;BME280;10054;59.332;18.244;2022-12-20T12:01:02;99896.63;;;2.55;100.00
19789;BME280;10054;59.332;18.244;2022-12-20T12:03:38;99903.27;;;2.52;100.00
19789;BME280;10054;59.332;18.244;2022-12-20T12:11:19;99891.92;;;2.43;100.00
19789;BME280;10054;59.332;18.244;2022-12-20T12:13:48;99897.07;;;2.45;100.00
19789;BME280;10054;59.332;18.244;2022-12-20T12:16:26;99895.70;;;2.46;100.00
19789;BME280;10054;59.332;18.244;2022-12-20T12:19:02;99897.01;;;2.46;100.00
19789;BME280;10054;59.332;18.244;2022-12-20T12:21:45;99897.86;;;2.47;100.00
19789;BME280;10054;59.332;18.244;2022-12-20T12:24:28;99892.13;;;2.49;100.00
19789;BME280;10054;59.332;18.244;2022-12-20T12:26:58;99882.11;;;2.50;100.00
19789;BME280;10054;59.332;18.244;2022-12-20T12:29:29;99878.53;;;2.52;100.00
19789;BME280;10054;59.332;18.244;2022-12-20T12:37:58;99867.99;;;2.55;100.00
19789;BME280;10054;59.332;18.244;2022-12-20T12:43:22;99853.41;;;2.61;100.00
19789;BME280;10054;59.332;18.244;2022-12-20T12:45:59;99850.23;;;2.65;100.00
19789;BME280;10054;59.332;18.244;2022-12-20T12:48:40;99853.55;;;2.69;100.00
19789;BME280;10054;59.332;18.244;2022-12-20T12:51:09;99853.94;;;2.70;100.00
19789;BME280;10054;59.332;18.244;2022-12-20T12:53:53;99854.78;;;2.70;100.00
19789;BME280;10054;59.332;18.244;2022-12-20T12:59:09;99859.87;;;2.73;100.00
19789;BME280;10054;59.332;18.244;2022-12-20T13:18:00;99845.34;;;2.78;100.00
19789;BME280;10054;59.332;18.244;2022-12-20T13:20:31;99842.22;;;2.80;100.00
19789;BME280;10054;59.332;18.244;2022-12-20T13:23:11;99841.17;;;2.84;100.00
19789;BME280;10054;59.332;18.244;2022-12-20T13:25:39;99841.95;;;2.86;100.00
19789;BME280;10054;59.332;18.244;2022-12-20T13:33:49;99841.16;;;2.94;100.00
19789;BME280;10054;59.332;18.244;2022-12-20T13:36:32;99837.19;;;2.95;100.00
19789;BME280;10054;59.332;18.244;2022-12-20T13:39:28;99833.58;;;2.98;100.00
19789;BME280;10054;59.332;18.244;2022-12-20T13:47:03;99829.39;;;3.04;100.00
19789;BME280;10054;59.332;18.244;2022-12-20T13:49:40;99828.88;;;3.06;100.00
19789;BME280;10054;59.332;18.244;2022-12-20T13:52:11;99833.55;;;3.08;100.00
19789;BME280;10054;59.332;18.244;2022-12-20T13:54:46;99837.02;;;3.09;100.00
19789;BME280;10054;59.332;18.244;2022-12-20T13:57:23;99836.94;;;3.10;100.00
19789;BME280;10054;59.332;18.244;2022-12-20T13:59:52;99851.66;;;3.11;100.00
19789;BME280;10054;59.332;18.244;2022-12-20T14:02:25;99853.03;;;3.10;100.00
19789;BME280;10054;59.332;18.244;2022-12-20T14:05:05;99849.97;;;3.10;100.00
19789;BME280;10054;59.332;18.244;2022-12-20T14:07:37;99857.33;;;3.11;100.00
19789;BME280;10054;59.332;18.244;2022-12-20T14:10:21;99857.20;;;3.14;100.00
19789;BME280;10054;59.332;18.244;2022-12-20T14:12:48;99857.11;;;3.25;100.00
19789;BME280;10054;59.332;18.244;2022-12-20T14:17:54;99842.25;;;3.27;100.00
19789;BME280;10054;59.332;18.244;2022-12-20T14:20:27;99853.59;;;3.26;100.00
19789;BME280;10054;59.332;18.244;2022-12-20T14:23:08;99841.47;;;3.25;100.00
19789;BME280;10054;59.332;18.244;2022-12-20T14:25:37;99841.93;;;3.25;100.00
19789;BME280;10054;59.332;18.244;2022-12-20T14:28:13;99847.21;;;3.23;100.00
19789;BME280;10054;59.332;18.244;2022-12-20T14:30:43;99839.14;;;3.19;100.00
19789;BME280;10054;59.332;18.244;2022-12-20T14:36:16;99849.11;;;3.20;100.00
19789;BME280;10054;59.332;18.244;2022-12-20T14:38:36;99845.59;;;3.21;100.00